Time;durP1;ratioP1;P1;durP2;ratioP2;P2;SDS_P1;SDS_P2;PMS_P1;PMS_P2;Temp;Humidity;BMP_temperature;BMP_pressure;BME280_temperature;BME280_humidity;BME280_pressure;Samples;Min_cycle;Max_cycle;Signal;HPM_P1;HPM_P2
2023/07/25 00:00:42;;;;;;;329.73;189.10;;;;;;;10.59;100.00;100751.63;5038154;28;20467;-79
2023/07/25 00:03:07;;;;;;;290.45;166.57;;;;;;;10.46;100.00;100741.44;5055243;28;20041;-78
2023/07/25 00:05:34;;;;;;;322.77;183.90;;;;;;;10.27;100.00;100737.34;5054804;28;20387;-77
2023/07/25 00:08:00;;;;;;;291.35;167.75;;;;;;;10.21;100.00;100748.72;5054969;28;20064;-79
2023/07/25 00:10:28;;;;;;;288.98;167.93;;;;;;;9.96;100.00;100736.41;5057391;28;20120;-78
2023/07/25 00:12:55;;;;;;;302.33;174.50;;;;;;;9.78;100.00;100734.75;5058506;28;20032;-78
2023/07/25 00:15:21;;;;;;;317.48;184.60;;;;;;;9.77;100.00;100745.69;5074723;28;20035;-77
2023/07/25 00:17:47;;;;;;;302.00;174.77;;;;;;;9.75;100.00;100745.84;5074874;28;20043;-78
2023/07/25 00:20:12;;;;;;;330.15;188.10;;;;;;;9.79;100.00;100754.41;5057754;28;20476;-78
2023/07/25 00:22:38;;;;;;;323.75;189.50;;;;;;;9.72;100.00;100731.94;5075010;28;20527;-78
2023/07/25 00:25:04;;;;;;;316.05;184.55;;;;;;;9.86;100.00;100734.75;5057835;28;20032;-78
2023/07/25 00:27:30;;;;;;;306.05;178.60;;;;;;;10.07;100.00;100752.97;5041588;28;20032;-78
2023/07/25 00:29:55;;;;;;;291.10;170.52;;;;;;;10.20;100.00;100751.63;5057176;28;20038;-78
2023/07/25 00:32:21;;;;;;;305.50;179.02;;;;;;;10.36;100.00;100756.94;5041210;28;20502;-77
2023/07/25 00:34:50;;;;;;;316.73;184.68;;;;;;;10.45;100.00;100744.31;5074764;28;20032;-78
2023/07/25 00:37:15;;;;;;;321.83;186.55;;;;;;;10.51;100.00;100746.31;5058063;28;20098;-77
2023/07/25 00:39:41;;;;;;;305.27;177.13;;;;;;;10.53;100.00;100745.13;5075141;28;20036;-79
2023/07/25 00:42:06;;;;;;;302.25;174.38;;;;;;;10.41;100.00;100727.69;5057802;28;20481;-77
2023/07/25 00:44:32;;;;;;;296.95;170.25;;;;;;;10.46;100.00;100730.69;5075653;28;20036;-78
2023/07/25 00:46:58;;;;;;;284.02;165.57;;;;;;;10.31;100.00;100710.94;5074425;28;20375;-78
2023/07/25 00:49:24;;;;;;;297.13;171.55;;;;;;;10.35;100.00;100728.41;5056392;28;20024;-78
2023/07/25 00:51:50;;;;;;;281.33;162.43;;;;;;;10.45;100.00;100738.94;5074255;28;20387;-77
2023/07/25 00:54:16;;;;;;;294.73;170.98;;;;;;;10.40;100.00;100736.78;5024974;28;20356;-78
2023/07/25 00:56:41;;;;;;;291.60;167.57;;;;;;;10.30;100.00;100725.41;5057824;28;20043;-78
2023/07/25 00:59:07;;;;;;;264.83;156.38;;;;;;;10.24;100.00;100734.09;5073784;28;20118;-78
2023/07/25 01:01:33;;;;;;;262.05;155.18;;;;;;;10.08;100.00;100738.56;5073792;28;20162;-78
2023/07/25 01:03:58;;;;;;;311.52;179.43;;;;;;;9.98;100.00;100743.28;5073794;28;20471;-78
2023/07/25 01:06:24;;;;;;;280.98;164.63;;;;;;;9.73;100.00;100725.53;5056419;28;20041;-78
2023/07/25 01:08:51;;;;;;;281.58;164.82;;;;;;;9.68;100.00;100736.78;5056785;28;20036;-78
2023/07/25 01:11:17;;;;;;;284.20;165.70;;;;;;;9.52;100.00;100729.59;5040353;28;20032;-78
2023/07/25 01:13:43;;;;;;;284.67;166.68;;;;;;;9.33;100.00;100725.44;5072985;28;20024;-77
2023/07/25 01:16:20;;;;;;;296.10;174.75;;;;;;;9.32;100.00;100736.34;5024308;28;20135;-77
2023/07/25 01:18:46;;;;;;;270.98;161.07;;;;;;;9.23;100.00;100736.34;5039929;28;20043;-77
2023/07/25 01:21:13;;;;;;;271.48;161.20;;;;;;;9.02;100.00;100695.75;5040902;28;20048;-77
2023/07/25 01:23:40;;;;;;;311.25;183.80;;;;;;;9.22;100.00;100729.28;5057186;28;20040;-77
2023/07/25 01:26:05;;;;;;;267.80;160.32;;;;;;;9.24;100.00;100729.13;5057075;28;20040;-78
2023/07/25 01:28:31;;;;;;;273.27;159.63;;;;;;;9.29;100.00;100733.97;5073328;28;20028;-80
2023/07/25 01:30:57;;;;;;;260.27;154.40;;;;;;;9.34;100.00;100727.13;5071267;28;20036;-77
2023/07/25 01:33:23;;;;;;;264.63;157.30;;;;;;;9.45;100.00;100720.56;5073474;28;20060;-78
2023/07/25 01:35:49;;;;;;;257.67;154.35;;;;;;;9.59;100.00;100722.56;5073134;28;20028;-77
2023/07/25 01:38:15;;;;;;;260.15;155.18;;;;;;;9.74;100.00;100728.06;5056427;28;20497;-77
2023/07/25 01:40:41;;;;;;;260.50;155.43;;;;;;;9.86;100.00;100739.28;5051850;28;20025;-77
2023/07/25 01:43:08;;;;;;;250.35;150.63;;;;;;;9.91;100.00;100737.75;5070039;28;20124;-77
2023/07/25 01:45:33;;;;;;;249.48;150.63;;;;;;;10.03;100.00;100727.50;5053253;28;20136;-78
2023/07/25 01:47:59;;;;;;;256.55;152.75;;;;;;;10.17;100.00;100733.16;5053144;28;20463;-78
2023/07/25 01:50:26;;;;;;;259.73;153.77;;;;;;;10.27;100.00;100736.47;5067107;28;20036;-77
2023/07/25 01:52:51;;;;;;;253.35;151.10;;;;;;;10.24;100.00;100716.16;5072767;28;20128;-77
2023/07/25 01:55:17;;;;;;;238.32;144.43;;;;;;;10.37;100.00;100731.72;5073058;28;20099;-78
2023/07/25 01:57:42;;;;;;;234.00;142.60;;;;;;;10.34;100.00;100727.53;5056264;28;20467;-78
2023/07/25 02:00:09;;;;;;;300.67;174.18;;;;;;;10.34;100.00;100729.41;5052802;28;20037;-78
2023/07/25 02:02:34;;;;;;;247.73;146.25;;;;;;;10.25;100.00;100719.69;5053236;28;20029;-78
2023/07/25 02:05:00;;;;;;;271.00;159.77;;;;;;;10.18;100.00;100713.31;5053058;28;20051;-77
2023/07/25 02:07:25;;;;;;;221.68;136.20;;;;;;;10.19;100.00;100734.66;5040573;28;20093;-77
2023/07/25 02:09:51;;;;;;;226.32;137.55;;;;;;;10.17;100.00;100730.47;5036124;28;20486;-77
2023/07/25 02:12:16;;;;;;;220.50;136.13;;;;;;;10.12;100.00;100729.13;5036364;28;20119;-78
2023/07/25 02:14:42;;;;;;;222.40;136.45;;;;;;;10.07;100.00;100715.38;5054535;28;20037;-78
2023/07/25 02:17:08;;;;;;;221.98;136.73;;;;;;;10.09;100.00;100718.72;5021312;28;20029;-77
2023/07/25 02:19:33;;;;;;;218.73;135.65;;;;;;;10.13;100.00;100724.59;5051765;28;20040;-78
2023/07/25 02:21:59;;;;;;;220.77;135.15;;;;;;;10.15;100.00;100729.78;5052918;28;20033;-77
2023/07/25 02:24:24;;;;;;;219.90;136.13;;;;;;;10.18;100.00;100727.59;5052875;28;20486;-77
2023/07/25 02:26:50;;;;;;;219.13;135.20;;;;;;;10.20;100.00;100727.44;5055446;28;20043;-77
2023/07/25 02:29:16;;;;;;;223.57;136.70;;;;;;;10.24;100.00;100712.63;5072682;28;20032;-77
2023/07/25 02:31:42;;;;;;;223.05;137.07;;;;;;;10.28;100.00;100722.03;5056186;28;20131;-77
2023/07/25 02:34:07;;;;;;;284.75;164.27;;;;;;;10.38;100.00;100725.38;5072267;28;20092;-77
2023/07/25 02:36:33;;;;;;;273.95;159.63;;;;;;;10.42;100.00;100726.66;5052130;28;20071;-77
2023/07/25 02:38:58;;;;;;;279.48;164.15;;;;;;;10.44;100.00;100721.97;5052153;28;20033;-77
2023/07/25 02:41:24;;;;;;;281.33;161.95;;;;;;;10.45;100.00;100726.34;5053629;28;20497;-77
2023/07/25 02:43:50;;;;;;;272.88;157.65;;;;;;;10.42;100.00;100725.84;5019578;28;20040;-77
2023/07/25 02:46:15;;;;;;;271.92;157.90;;;;;;;10.37;100.00;100726.34;5071703;28;20046;-77
2023/07/25 02:48:41;;;;;;;268.58;156.82;;;;;;;10.33;100.00;100715.13;5055613;28;20393;-77
2023/07/25 02:51:06;;;;;;;242.05;144.27;;;;;;;10.38;100.00;100721.84;5055797;28;20173;-77
2023/07/25 02:53:32;;;;;;;225.18;137.25;;;;;;;10.27;100.00;100715.84;5074353;28;20478;-77
2023/07/25 02:55:58;;;;;;;264.55;153.80;;;;;;;10.32;100.00;100729.59;5071384;28;20129;-77
2023/07/25 02:58:24;;;;;;;262.60;153.88;;;;;;;10.27;100.00;100717.66;5056095;28;20090;-78
2023/07/25 03:00:50;;;;;;;277.95;161.38;;;;;;;10.27;100.00;100723.91;5072393;28;20029;-77
2023/07/25 03:03:15;;;;;;;279.63;163.75;;;;;;;10.20;100.00;100714.81;5055909;28;20040;-77
2023/07/25 03:05:41;;;;;;;254.00;149.68;;;;;;;10.25;100.00;100719.69;5037555;28;20456;-77
2023/07/25 03:08:07;;;;;;;266.00;155.07;;;;;;;10.25;100.00;100723.19;5072129;28;20036;-77
2023/07/25 03:10:33;;;;;;;224.95;136.90;;;;;;;10.26;100.00;100727.56;5072140;28;20032;-77
2023/07/25 03:12:58;;;;;;;267.52;156.75;;;;;;;10.22;100.00;100720.03;5055595;28;20493;-77
2023/07/25 03:15:24;;;;;;;265.92;156.38;;;;;;;10.20;100.00;100720.19;5038613;28;20064;-79
2023/07/25 03:17:50;;;;;;;222.23;135.85;;;;;;;10.06;100.00;100708.34;5056369;28;20458;-77
2023/07/25 03:20:16;;;;;;;262.50;154.50;;;;;;;9.88;100.00;100705.03;5055191;28;20445;-77
2023/07/25 03:22:41;;;;;;;265.27;157.52;;;;;;;9.77;100.00;100713.47;5072177;28;20032;-77
2023/07/25 03:25:07;;;;;;;266.20;156.85;;;;;;;9.58;100.00;100688.69;5072930;28;20070;-77
2023/07/25 03:27:33;;;;;;;264.52;157.52;;;;;;;9.59;100.00;100708.31;5070919;28;20115;-77
2023/07/25 03:29:59;;;;;;;263.83;157.35;;;;;;;9.51;100.00;100706.47;5056351;28;20162;-78
2023/07/25 03:32:24;;;;;;;264.33;157.40;;;;;;;9.52;100.00;100702.75;5075727;28;20059;-78
2023/07/25 03:34:50;;;;;;;271.98;161.70;;;;;;;9.58;100.00;100698.56;5075298;28;20043;-78
2023/07/25 03:37:15;;;;;;;269.55;159.55;;;;;;;9.63;100.00;100705.13;5059188;28;20040;-77
2023/07/25 03:39:41;;;;;;;268.25;159.25;;;;;;;9.72;100.00;100699.72;5075742;28;20444;-78
2023/07/25 03:42:06;;;;;;;268.77;159.95;;;;;;;9.79;100.00;100706.06;5075659;28;20113;-77
2023/07/25 03:44:35;;;;;;;268.25;160.68;;;;;;;9.84;100.00;100707.25;5075349;28;20051;-77
2023/07/25 03:47:01;;;;;;;265.73;158.65;;;;;;;9.88;100.00;100696.97;5075035;28;20033;-77
2023/07/25 03:49:26;;;;;;;283.75;158.95;;;;;;;9.94;100.00;100698.13;5075398;28;20040;-77
2023/07/25 03:51:52;;;;;;;281.65;165.80;;;;;;;10.07;100.00;100693.06;5058805;28;20033;-78
2023/07/25 03:54:18;;;;;;;282.25;164.57;;;;;;;10.02;100.00;100700.78;5057885;28;20580;-78
2023/07/25 03:56:44;;;;;;;279.35;164.30;;;;;;;9.92;100.00;100690.25;5075282;28;20029;-78
2023/07/25 03:59:10;;;;;;;280.00;162.52;;;;;;;9.84;100.00;100701.00;5042232;28;20036;-77
2023/07/25 04:01:35;;;;;;;268.98;159.05;;;;;;;9.63;100.00;100694.38;5074489;28;20542;-77
2023/07/25 04:04:01;;;;;;;209.10;132.32;;;;;;;9.56;100.00;100698.75;5058680;28;20032;-77
2023/07/25 04:06:26;;;;;;;215.70;134.88;;;;;;;9.64;100.00;100717.50;5058442;28;20032;-78
2023/07/25 04:08:52;;;;;;;212.52;133.10;;;;;;;9.67;100.00;100716.34;5075400;28;20467;-77
2023/07/25 04:11:17;;;;;;;221.23;137.10;;;;;;;9.70;100.00;100718.69;5075041;28;20024;-78
2023/07/25 04:13:43;;;;;;;217.90;135.38;;;;;;;9.74;100.00;100713.78;5076389;28;20029;-77
2023/07/25 04:16:09;;;;;;;211.25;133.48;;;;;;;9.66;100.00;100699.41;5074855;28;20033;-79
2023/07/25 04:18:34;;;;;;;213.77;133.73;;;;;;;9.60;100.00;100685.81;5074843;28;20033;-79
2023/07/25 04:21:00;;;;;;;212.77;133.50;;;;;;;9.68;100.00;100708.13;5057380;28;20530;-78
2023/07/25 04:23:26;;;;;;;219.27;136.13;;;;;;;9.59;100.00;100711.81;5074703;28;20032;-78
2023/07/25 04:25:51;;;;;;;217.20;136.90;;;;;;;9.51;100.00;100714.50;5074538;28;20074;-78
2023/07/25 04:28:17;;;;;;;223.75;138.23;;;;;;;9.41;100.00;100711.16;5057888;28;20040;-77
2023/07/25 04:30:43;;;;;;;218.18;137.73;;;;;;;9.15;100.00;100690.72;5056911;28;20036;-78
2023/07/25 04:33:08;;;;;;;225.00;139.90;;;;;;;9.21;100.00;100710.69;5058176;28;20029;-79
2023/07/25 04:35:34;;;;;;;215.93;135.45;;;;;;;9.17;100.00;100712.03;5041317;28;20430;-79
2023/07/25 04:38:00;;;;;;;217.85;135.15;;;;;;;9.13;100.00;100711.53;5040656;28;20032;-78
2023/07/25 04:40:25;;;;;;;221.00;139.10;;;;;;;8.94;100.00;100699.25;5057172;28;20036;-79
2023/07/25 04:42:51;;;;;;;228.75;139.70;;;;;;;8.97;100.00;100716.84;5072770;28;20117;-77
2023/07/25 04:45:17;;;;;;;221.13;138.35;;;;;;;8.92;100.00;100721.91;5074367;28;20039;-77
2023/07/25 04:47:42;;;;;;;222.75;140.25;;;;;;;8.83;100.00;100717.53;5053590;28;20028;-77
2023/07/25 04:50:09;;;;;;;222.82;140.70;;;;;;;8.67;100.00;100704.94;5054134;28;20025;-77
2023/07/25 04:52:42;;;;;;;225.18;141.88;;;;;;;8.51;100.00;100708.41;5038783;28;20170;-77
2023/07/25 04:55:08;;;;;;;221.23;141.25;;;;;;;8.31;100.00;100700.63;5049988;28;20033;-77
2023/07/25 04:57:33;;;;;;;222.30;141.60;;;;;;;8.22;100.00;100696.22;5073434;28;20040;-77
2023/07/25 05:00:00;;;;;;;225.52;143.25;;;;;;;8.15;100.00;100698.75;5074187;28;20082;-77
2023/07/25 05:02:25;;;;;;;226.02;142.63;;;;;;;8.22;100.00;100717.66;5073922;28;20021;-77
2023/07/25 05:04:51;;;;;;;226.35;144.10;;;;;;;8.15;100.00;100713.97;5040864;28;20368;-78
2023/07/25 05:07:17;;;;;;;228.18;146.35;;;;;;;8.12;100.00;100715.13;5073333;28;20028;-77
2023/07/25 05:09:42;;;;;;;236.77;147.70;;;;;;;8.08;100.00;100711.09;5075047;28;20033;-77
2023/07/25 05:12:12;;;;;;;230.70;146.75;;;;;;;8.09;100.00;100706.56;5040798;28;20123;-77
2023/07/25 05:14:38;;;;;;;236.25;147.90;;;;;;;8.25;100.00;100706.63;5057204;28;20364;-77
2023/07/25 05:17:04;;;;;;;236.15;147.95;;;;;;;8.37;100.00;100708.00;5036473;28;20159;-77
2023/07/25 05:19:30;;;;;;;240.75;152.23;;;;;;;8.35;100.00;100711.84;5020593;28;20143;-77
2023/07/25 05:21:55;;;;;;;281.63;173.73;;;;;;;8.41;100.00;100718.44;5023987;28;20032;-77
2023/07/25 05:24:21;;;;;;;276.83;171.30;;;;;;;8.36;100.00;100698.31;5073661;28;20085;-77
2023/07/25 05:26:46;;;;;;;271.45;167.63;;;;;;;8.53;100.00;100714.47;5072954;28;20498;-77
2023/07/25 05:29:12;;;;;;;258.08;160.85;;;;;;;8.85;100.00;100718.22;5040133;28;20403;-77
2023/07/25 05:31:38;;;;;;;237.18;148.90;;;;;;;9.31;100.00;100715.88;5057294;28;20044;-78
2023/07/25 05:34:05;;;;;;;229.98;144.45;;;;;;;9.43;100.00;100717.22;5057531;28;20042;-77
2023/07/25 05:36:31;;;;;;;230.90;144.95;;;;;;;9.33;100.00;100706.66;5072992;28;20036;-77
2023/07/25 05:38:57;;;;;;;280.80;171.77;;;;;;;9.25;100.00;100702.13;5073292;28;20029;-77
2023/07/25 05:41:25;;;;;;;282.33;172.80;;;;;;;9.25;100.00;100712.03;5072998;28;20024;-78
2023/07/25 05:43:50;;;;;;;280.20;170.07;;;;;;;9.27;100.00;100717.22;5073287;28;20113;-77
2023/07/25 05:46:16;;;;;;;280.55;170.52;;;;;;;9.33;100.00;100730.78;5055692;28;20123;-79
2023/07/25 05:48:41;;;;;;;282.13;169.63;;;;;;;9.41;100.00;100729.94;5056394;28;20505;-78
2023/07/25 05:51:09;;;;;;;285.35;168.65;;;;;;;9.45;100.00;100725.94;5040441;28;20074;-77
2023/07/25 05:53:35;;;;;;;271.30;164.10;;;;;;;9.49;100.00;100716.53;5056728;28;20036;-77
2023/07/25 05:56:01;;;;;;;279.35;167.55;;;;;;;9.84;100.00;100735.91;5055535;28;20055;-77
2023/07/25 05:58:26;;;;;;;207.82;132.85;;;;;;;10.75;100.00;100723.81;5039784;28;20045;-77
2023/07/25 06:00:52;;;;;;;206.43;130.88;;;;;;;11.76;100.00;100736.09;5057057;28;20032;-78
2023/07/25 06:03:17;;;;;;;264.35;156.85;;;;;;;12.48;100.00;100738.13;5056012;28;20445;-77
2023/07/25 06:05:43;;;;;;;314.80;178.20;;;;;;;13.06;100.00;100743.56;5055972;28;20029;-78
2023/07/25 06:08:09;;;;;;;275.65;157.88;;;;;;;13.36;100.00;100713.72;5072482;28;20044;-78
2023/07/25 06:10:35;;;;;;;332.17;185.10;;;;;;;13.94;100.00;100735.97;5056255;28;20429;-78
2023/07/25 06:13:04;;;;;;;340.77;188.95;;;;;;;14.31;100.00;100733.91;5055877;28;20021;-79
2023/07/25 06:15:33;;;;;;;355.45;193.68;;;;;;;14.59;100.00;100741.13;5056292;28;20055;-78
2023/07/25 06:18:03;;;;;;;280.33;155.50;;;;;;;14.94;100.00;100749.97;5056563;28;20082;-79
2023/07/25 06:20:32;;;;;;;330.10;179.23;;;;;;;14.49;100.00;100749.59;5056117;28;20078;-78
2023/07/25 06:22:59;;;;;;;350.80;188.98;;;;;;;14.06;100.00;100760.59;5056152;28;20035;-78
2023/07/25 06:25:26;;;;;;;343.88;185.25;;;;;;;13.56;100.00;100746.31;5055674;28;20032;-78
2023/07/25 06:27:52;;;;;;;334.08;179.88;;;;;;;13.29;100.00;100742.56;5055919;28;20032;-78
2023/07/25 06:30:17;;;;;;;326.63;175.48;;;;;;;13.42;100.00;100745.38;5071653;28;20469;-78
2023/07/25 06:32:43;;;;;;;322.17;175.95;;;;;;;13.44;100.00;100754.09;5072226;28;20021;-78
2023/07/25 06:35:08;;;;;;;328.25;176.23;;;;;;;13.75;100.00;100742.94;5071789;28;20036;-78
2023/07/25 06:37:35;;;;;;;321.38;173.27;;;;;;;14.85;100.00;100752.03;5072389;28;20031;-78
2023/07/25 06:40:01;;;;;;;320.02;172.10;;;;;;;15.66;100.00;100744.81;5072341;28;20029;-78
2023/07/25 06:42:28;;;;;;;337.10;178.85;;;;;;;16.32;100.00;100754.75;5055187;28;20029;-80
2023/07/25 06:44:57;;;;;;;343.42;180.55;;;;;;;16.89;100.00;100756.59;5071682;28;20120;-78
2023/07/25 06:47:23;;;;;;;353.73;184.45;;;;;;;17.46;100.00;100747.66;5055807;28;20076;-79
2023/07/25 06:49:49;;;;;;;361.63;186.65;;;;;;;17.85;100.00;100732.06;5056362;28;20383;-78
2023/07/25 06:52:15;;;;;;;359.63;184.93;;;;;;;18.36;97.71;100753.47;5055238;28;20483;-79
2023/07/25 06:54:45;;;;;;;357.70;183.75;;;;;;;18.73;93.75;100750.72;5055668;28;20468;-79
2023/07/25 06:57:10;;;;;;;356.90;180.02;;;;;;;19.17;90.12;100762.28;5056008;28;20132;-78
2023/07/25 06:59:38;;;;;;;359.80;182.82;;;;;;;19.61;87.02;100748.38;5073006;28;20120;-81
2023/07/25 07:02:04;;;;;;;366.95;186.30;;;;;;;20.10;85.03;100757.19;5072026;28;20025;-79
2023/07/25 07:04:30;;;;;;;368.63;185.23;;;;;;;20.40;81.72;100743.34;5073894;28;20150;-81
2023/07/25 07:06:56;;;;;;;371.90;186.70;;;;;;;20.92;80.97;100762.47;5075827;28;20029;-79
2023/07/25 07:09:24;;;;;;;379.02;187.43;;;;;;;21.38;77.48;100755.13;5059879;28;20486;-80
2023/07/25 07:11:50;;;;;;;377.75;187.93;;;;;;;21.63;74.45;100760.19;5076165;28;20036;-79
2023/07/25 07:14:15;;;;;;;375.70;186.90;;;;;;;21.68;71.78;100753.97;5059539;28;20035;-78
2023/07/25 07:16:44;;;;;;;357.88;178.75;;;;;;;21.98;69.00;100771.94;5059196;28;20035;-80
2023/07/25 07:19:10;;;;;;;348.13;175.05;;;;;;;22.16;69.16;100755.22;5059153;28;20033;-80
2023/07/25 07:21:35;;;;;;;325.17;164.90;;;;;;;22.48;67.08;100762.78;5075641;28;20086;-79
2023/07/25 07:24:01;;;;;;;321.55;162.80;;;;;;;22.75;66.40;100763.66;5059115;28;20036;-79
2023/07/25 07:26:27;;;;;;;317.13;161.20;;;;;;;23.15;64.55;100767.94;5058865;28;20025;-80
2023/07/25 07:28:52;;;;;;;315.13;160.50;;;;;;;23.22;60.90;100776.78;5058154;28;20445;-78
2023/07/25 07:31:23;;;;;;;312.27;159.13;;;;;;;23.22;60.11;100765.81;5041301;28;20082;-80
2023/07/25 07:33:49;;;;;;;307.90;157.85;;;;;;;23.22;59.62;100768.56;5075644;28;20570;-78
2023/07/25 07:36:14;;;;;;;299.65;154.95;;;;;;;23.34;58.90;100764.81;5058624;28;20024;-78
2023/07/25 07:38:40;;;;;;;294.10;153.70;;;;;;;23.53;59.90;100765.28;5076094;28;20036;-79
2023/07/25 07:41:09;;;;;;;286.98;151.65;;;;;;;23.85;58.19;100762.53;5058456;28;20115;-78
2023/07/25 07:43:35;;;;;;;292.58;152.52;;;;;;;23.91;55.87;100753.22;5074644;28;20392;-78
2023/07/25 07:46:00;;;;;;;294.38;153.35;;;;;;;23.80;54.67;100771.56;5075236;28;20402;-79
2023/07/25 07:48:29;;;;;;;307.65;157.60;;;;;;;23.84;55.29;100772.69;5075140;28;20033;-79
2023/07/25 07:50:55;;;;;;;294.50;154.20;;;;;;;23.91;55.10;100742.25;5076283;28;20078;-79
2023/07/25 07:53:20;;;;;;;288.98;151.43;;;;;;;24.48;52.97;100774.47;5057742;28;20029;-79
2023/07/25 07:55:46;;;;;;;300.63;156.07;;;;;;;24.68;51.24;100761.88;5074719;28;20037;-81
2023/07/25 07:58:11;;;;;;;293.50;153.05;;;;;;;24.82;50.58;100767.69;5074713;28;20421;-79
2023/07/25 08:00:37;;;;;;;284.77;152.10;;;;;;;24.78;47.99;100765.47;5075720;28;20033;-80
2023/07/25 08:03:03;;;;;;;286.13;150.80;;;;;;;24.48;48.14;100755.22;5074955;28;20082;-78
2023/07/25 08:05:28;;;;;;;291.25;153.07;;;;;;;24.63;48.83;100768.19;5074871;28;20085;-79
2023/07/25 08:07:54;;;;;;;287.00;152.38;;;;;;;24.84;47.01;100779.25;5058224;28;20383;-79
2023/07/25 08:10:21;;;;;;;297.67;154.30;;;;;;;24.80;46.46;100767.97;5075061;28;20073;-79
2023/07/25 08:12:47;;;;;;;293.45;152.95;;;;;;;24.74;46.47;100760.78;5058817;28;20024;-78
2023/07/25 08:15:13;;;;;;;294.58;153.70;;;;;;;25.08;46.44;100771.31;5074616;28;20032;-80
2023/07/25 08:17:39;;;;;;;307.92;157.82;;;;;;;25.80;45.88;100769.44;5073919;28;20033;-89
2023/07/25 08:20:05;;;;;;;294.90;153.98;;;;;;;26.11;42.58;100767.50;5052704;28;20034;-81
2023/07/25 08:22:31;;;;;;;288.67;152.43;;;;;;;25.91;42.45;100762.03;5037904;28;20382;-81
2023/07/25 08:24:57;;;;;;;290.40;153.20;;;;;;;26.29;43.54;100772.41;5037835;28;20495;-81
2023/07/25 08:27:24;;;;;;;288.30;152.48;;;;;;;26.89;42.61;100768.88;5055861;28;20060;-81
2023/07/25 08:29:49;;;;;;;290.35;153.50;;;;;;;26.83;40.14;100765.28;5037960;28;20442;-81
2023/07/25 08:32:15;;;;;;;296.40;155.82;;;;;;;27.11;42.31;100769.28;5054665;28;20079;-80
2023/07/25 08:34:40;;;;;;;291.73;154.27;;;;;;;27.34;39.81;100765.00;5054617;28;20020;-80
2023/07/25 08:37:06;;;;;;;269.45;147.20;;;;;;;27.40;39.49;100763.03;5021584;28;20033;-81
2023/07/25 08:39:32;;;;;;;283.60;151.02;;;;;;;27.37;37.90;100742.34;5054765;28;20094;-80
2023/07/25 08:41:59;;;;;;;278.23;150.18;;;;;;;27.37;38.49;100758.09;5037786;28;20037;-80
2023/07/25 08:44:26;;;;;;;277.85;150.07;;;;;;;27.66;39.78;100727.72;5054647;28;20040;-80
2023/07/25 08:46:54;;;;;;;274.70;148.68;;;;;;;28.51;35.70;100753.91;5037923;28;20472;-80
2023/07/25 08:49:23;;;;;;;277.95;150.40;;;;;;;28.04;34.36;100745.31;5037454;28;20029;-80
2023/07/25 08:51:54;;;;;;;278.33;150.45;;;;;;;27.70;35.11;100730.72;5038044;28;20051;-80
2023/07/25 08:54:34;;;;;;;257.45;143.80;;;;;;;27.81;34.40;100740.56;5021787;28;20040;-79
2023/07/25 08:57:00;;;;;;;266.40;147.18;;;;;;;28.11;34.86;100741.38;5037740;28;20024;-79
2023/07/25 08:59:26;;;;;;;268.17;147.30;;;;;;;28.47;32.82;100731.56;5037726;28;20044;-80
2023/07/25 09:01:52;;;;;;;260.38;144.38;;;;;;;28.31;32.56;100743.88;5036710;28;20086;-80
2023/07/25 09:04:19;;;;;;;273.38;148.93;;;;;;;27.90;33.93;100738.84;5054017;28;20029;-80
2023/07/25 09:06:45;;;;;;;265.85;147.18;;;;;;;28.02;34.37;100752.25;5037128;28;20033;-80
2023/07/25 09:09:11;;;;;;;275.88;149.95;;;;;;;28.03;34.44;100757.50;5037834;28;20032;-80
2023/07/25 09:11:36;;;;;;;282.60;151.65;;;;;;;27.94;34.11;100753.69;5054033;28;20033;-80
2023/07/25 09:14:02;;;;;;;281.45;151.63;;;;;;;27.93;34.66;100748.50;5037319;28;20193;-80
2023/07/25 09:16:33;;;;;;;278.08;150.65;;;;;;;27.97;34.32;100742.09;5037484;28;20505;-80
2023/07/25 09:18:58;;;;;;;275.88;148.98;;;;;;;27.86;34.28;100746.06;5037284;28;20037;-80
2023/07/25 09:21:24;;;;;;;267.83;146.65;;;;;;;27.96;33.79;100748.72;5037297;28;20044;-79
2023/07/25 09:23:53;;;;;;;281.70;152.18;;;;;;;28.47;34.21;100744.56;5053259;28;20036;-79
2023/07/25 09:26:29;;;;;;;279.42;150.77;;;;;;;28.50;32.48;100741.22;5036637;28;20102;-79
2023/07/25 09:28:57;;;;;;;283.35;151.73;;;;;;;28.79;32.38;100749.41;5052967;28;20025;-80
2023/07/25 09:31:23;;;;;;;284.83;152.23;;;;;;;29.17;32.67;100754.94;5037855;28;20034;-80
2023/07/25 09:33:57;;;;;;;275.00;148.95;;;;;;;29.61;31.12;100745.34;5038379;28;20513;-80
2023/07/25 09:36:22;;;;;;;269.45;146.52;;;;;;;28.80;30.61;100742.72;5038710;28;20390;-80
2023/07/25 09:39:18;;;;;;;280.20;150.48;;;;;;;28.50;32.51;100735.69;5037405;28;20036;-80
2023/07/25 09:41:45;;;;;;;265.38;146.05;;;;;;;29.80;30.16;100765.56;5067703;28;20391;-80
2023/07/25 09:44:11;;;;;;;277.08;150.02;;;;;;;30.65;30.23;100760.56;5021729;28;20029;-80
2023/07/25 09:46:37;;;;;;;261.60;144.60;;;;;;;29.86;28.76;100760.72;5055896;28;20028;-80
2023/07/25 09:49:03;;;;;;;263.70;146.10;;;;;;;28.86;30.32;100765.63;5039614;28;20039;-82
2023/07/25 09:51:29;;;;;;;272.30;148.00;;;;;;;26.97;32.87;100763.56;5056309;28;20068;-81
2023/07/25 09:53:55;;;;;;;278.52;149.00;;;;;;;27.43;33.21;100762.44;5071078;28;20036;-81
2023/07/25 09:56:22;;;;;;;277.38;149.57;;;;;;;27.81;33.21;100757.16;5056338;28;20033;-80
2023/07/25 09:58:52;;;;;;;275.85;148.48;;;;;;;27.98;33.95;100760.31;5057014;28;20123;-80
2023/07/25 10:01:18;;;;;;;264.35;146.30;;;;;;;28.79;33.77;100754.94;5054815;28;20066;-80
2023/07/25 10:03:44;;;;;;;260.08;144.25;;;;;;;30.38;31.22;100761.41;5056456;28;20068;-80
2023/07/25 10:06:11;;;;;;;263.70;146.20;;;;;;;30.97;29.08;100758.75;5055249;28;20028;-81
2023/07/25 10:08:38;;;;;;;249.05;141.98;;;;;;;30.58;29.14;100771.25;5072221;28;20025;-80
2023/07/25 10:11:05;;;;;;;254.18;143.68;;;;;;;29.58;31.07;100759.81;5055835;28;20115;-80
2023/07/25 10:13:32;;;;;;;243.45;140.23;;;;;;;30.04;30.39;100766.53;5039371;28;20063;-81
2023/07/25 10:16:00;;;;;;;246.52;141.35;;;;;;;30.15;30.37;100756.88;5056509;28;20059;-81
2023/07/25 10:18:27;;;;;;;250.32;142.57;;;;;;;31.47;30.00;100758.69;5072199;28;20036;-83
2023/07/25 10:20:53;;;;;;;249.95;142.02;;;;;;;31.82;28.12;100764.47;5072236;28;20028;-80
2023/07/25 10:23:29;;;;;;;253.27;143.57;;;;;;;30.90;28.47;100758.38;5055725;28;20028;-81
2023/07/25 10:25:55;;;;;;;256.63;144.70;;;;;;;31.31;28.23;100760.19;5072439;28;20032;-81
2023/07/25 10:28:24;;;;;;;253.95;143.85;;;;;;;30.21;29.46;100761.97;5056051;28;20029;-81
2023/07/25 10:30:52;;;;;;;262.63;146.30;;;;;;;31.23;28.54;100763.72;5047589;28;20086;-81
2023/07/25 10:33:18;;;;;;;256.60;144.13;;;;;;;29.91;28.61;100762.59;5071517;28;20039;-81
2023/07/25 10:35:53;;;;;;;250.75;141.75;;;;;;;27.11;32.47;100766.50;5039331;28;20028;-81
2023/07/25 10:38:31;;;;;;;267.23;146.20;;;;;;;28.13;31.72;100715.09;5072494;28;20028;-82
2023/07/25 10:41:15;;;;;;;271.52;147.05;;;;;;;26.52;33.53;100748.09;5038530;28;20036;-81
2023/07/25 10:43:44;;;;;;;284.13;151.95;;;;;;;27.33;32.86;100760.56;5056169;28;20044;-81
2023/07/25 10:46:15;;;;;;;287.80;153.05;;;;;;;29.80;30.31;100740.59;5072253;28;20028;-81
2023/07/25 10:48:51;;;;;;;288.35;153.02;;;;;;;31.57;28.84;100759.56;5072442;28;20028;-83